sensor_id;sensor_type;location;lat;lon;timestamp;P1;durP1;ratioP1;P2;durP2;ratioP2
55015;SDS011;40919;43.236;21.590;2022-11-20T00:03:32;53.03;;;34.78;;
55015;SDS011;40919;43.236;21.590;2022-11-20T00:05:59;34.78;;;25.40;;
55015;SDS011;40919;43.236;21.590;2022-11-20T00:08:26;36.58;;;26.83;;
55015;SDS011;40919;43.236;21.590;2022-11-20T00:10:52;47.50;;;36.45;;
55015;SDS011;40919;43.236;21.590;2022-11-20T00:13:18;46.15;;;34.83;;
55015;SDS011;40919;43.236;21.590;2022-11-20T00:15:43;63.38;;;46.53;;
55015;SDS011;40919;43.236;21.590;2022-11-20T00:18:09;80.82;;;54.05;;
55015;SDS011;40919;43.236;21.590;2022-11-20T00:20:35;73.22;;;49.35;;
55015;SDS011;40919;43.236;21.590;2022-11-20T00:23:01;69.30;;;45.95;;
55015;SDS011;40919;43.236;21.590;2022-11-20T00:25:27;74.70;;;49.80;;
55015;SDS011;40919;43.236;21.590;2022-11-20T00:27:52;75.28;;;49.95;;
55015;SDS011;40919;43.236;21.590;2022-11-20T00:30:18;63.33;;;43.72;;
55015;SDS011;40919;43.236;21.590;2022-11-20T00:32:44;53.65;;;38.03;;
55015;SDS011;40919;43.236;21.590;2022-11-20T00:35:10;48.00;;;36.55;;
55015;SDS011;40919;43.236;21.590;2022-11-20T00:37:35;51.25;;;36.75;;
55015;SDS011;40919;43.236;21.590;2022-11-20T00:40:01;44.53;;;33.75;;
55015;SDS011;40919;43.236;21.590;2022-11-20T00:42:30;50.85;;;35.55;;
55015;SDS011;40919;43.236;21.590;2022-11-20T00:44:57;48.08;;;37.40;;
55015;SDS011;40919;43.236;21.590;2022-11-20T00:47:23;50.30;;;37.13;;
55015;SDS011;40919;43.236;21.590;2022-11-20T00:49:49;47.60;;;37.00;;
55015;SDS011;40919;43.236;21.590;2022-11-20T00:52:14;55.70;;;41.33;;
55015;SDS011;40919;43.236;21.590;2022-11-20T00:54:40;60.95;;;42.83;;
55015;SDS011;40919;43.236;21.590;2022-11-20T00:57:06;67.13;;;46.60;;
55015;SDS011;40919;43.236;21.590;2022-11-20T00:59:32;69.47;;;48.70;;
55015;SDS011;40919;43.236;21.590;2022-11-20T01:01:57;66.50;;;48.45;;
55015;SDS011;40919;43.236;21.590;2022-11-20T01:04:23;58.63;;;41.65;;
55015;SDS011;40919;43.236;21.590;2022-11-20T01:06:49;54.83;;;38.10;;
55015;SDS011;40919;43.236;21.590;2022-11-20T01:09:15;43.25;;;33.92;;
55015;SDS011;40919;43.236;21.590;2022-11-20T01:11:42;43.53;;;34.50;;
55015;SDS011;40919;43.236;21.590;2022-11-20T01:14:14;47.45;;;35.15;;
55015;SDS011;40919;43.236;21.590;2022-11-20T01:16:44;48.72;;;36.13;;
55015;SDS011;40919;43.236;21.590;2022-11-20T01:19:14;46.90;;;33.88;;
55015;SDS011;40919;43.236;21.590;2022-11-20T01:21:42;44.58;;;34.67;;
55015;SDS011;40919;43.236;21.590;2022-11-20T01:24:13;40.78;;;30.48;;
55015;SDS011;40919;43.236;21.590;2022-11-20T01:26:41;47.00;;;35.60;;
55015;SDS011;40919;43.236;21.590;2022-11-20T01:29:15;44.80;;;32.22;;
55015;SDS011;40919;43.236;21.590;2022-11-20T01:31:44;49.38;;;35.42;;
55015;SDS011;40919;43.236;21.590;2022-11-20T01:34:11;46.97;;;33.45;;
55015;SDS011;40919;43.236;21.590;2022-11-20T01:36:39;44.22;;;33.83;;
55015;SDS011;40919;43.236;21.590;2022-11-20T01:39:07;42.08;;;32.60;;
55015;SDS011;40919;43.236;21.590;2022-11-20T01:41:37;43.97;;;31.50;;
55015;SDS011;40919;43.236;21.590;2022-11-20T01:44:41;43.80;;;34.03;;
55015;SDS011;40919;43.236;21.590;2022-11-20T01:47:17;46.13;;;33.63;;
55015;SDS011;40919;43.236;21.590;2022-11-20T01:50:10;40.67;;;31.25;;
55015;SDS011;40919;43.236;21.590;2022-11-20T01:52:45;47.28;;;35.80;;
55015;SDS011;40919;43.236;21.590;2022-11-20T01:55:18;46.88;;;33.95;;
55015;SDS011;40919;43.236;21.590;2022-11-20T01:57:49;44.50;;;34.00;;
55015;SDS011;40919;43.236;21.590;2022-11-20T02:00:16;50.50;;;37.88;;
55015;SDS011;40919;43.236;21.590;2022-11-20T02:02:48;50.05;;;34.55;;
55015;SDS011;40919;43.236;21.590;2022-11-20T02:05:21;70.53;;;45.67;;
55015;SDS011;40919;43.236;21.590;2022-11-20T02:08:06;61.63;;;42.92;;
55015;SDS011;40919;43.236;21.590;2022-11-20T02:10:34;72.00;;;47.20;;
55015;SDS011;40919;43.236;21.590;2022-11-20T02:13:00;58.55;;;40.53;;
55015;SDS011;40919;43.236;21.590;2022-11-20T02:15:45;83.45;;;52.05;;
55015;SDS011;40919;43.236;21.590;2022-11-20T02:18:11;89.03;;;58.45;;
55015;SDS011;40919;43.236;21.590;2022-11-20T02:20:42;84.05;;;55.13;;
55015;SDS011;40919;43.236;21.590;2022-11-20T02:23:26;89.82;;;57.50;;
55015;SDS011;40919;43.236;21.590;2022-11-20T02:26:05;80.68;;;51.42;;
55015;SDS011;40919;43.236;21.590;2022-11-20T02:28:34;65.95;;;46.25;;
55015;SDS011;40919;43.236;21.590;2022-11-20T02:31:00;61.80;;;45.13;;
55015;SDS011;40919;43.236;21.590;2022-11-20T02:33:26;61.63;;;42.75;;
55015;SDS011;40919;43.236;21.590;2022-11-20T02:35:52;59.55;;;43.85;;
55015;SDS011;40919;43.236;21.590;2022-11-20T02:38:18;75.05;;;49.33;;
55015;SDS011;40919;43.236;21.590;2022-11-20T02:40:44;72.30;;;49.40;;
55015;SDS011;40919;43.236;21.590;2022-11-20T02:43:10;63.28;;;44.10;;
55015;SDS011;40919;43.236;21.590;2022-11-20T02:45:36;50.65;;;38.13;;
55015;SDS011;40919;43.236;21.590;2022-11-20T02:48:02;56.05;;;40.92;;
55015;SDS011;40919;43.236;21.590;2022-11-20T02:50:28;56.97;;;43.05;;
55015;SDS011;40919;43.236;21.590;2022-11-20T02:52:53;52.15;;;36.65;;
55015;SDS011;40919;43.236;21.590;2022-11-20T02:55:19;46.53;;;34.15;;
55015;SDS011;40919;43.236;21.590;2022-11-20T02:57:45;51.88;;;35.67;;
55015;SDS011;40919;43.236;21.590;2022-11-20T03:00:11;51.47;;;36.15;;
55015;SDS011;40919;43.236;21.590;2022-11-20T03:02:37;48.53;;;32.45;;
55015;SDS011;40919;43.236;21.590;2022-11-20T03:05:03;49.63;;;33.63;;
55015;SDS011;40919;43.236;21.590;2022-11-20T03:07:29;47.05;;;32.72;;
55015;SDS011;40919;43.236;21.590;2022-11-20T03:09:54;39.38;;;29.90;;
55015;SDS011;40919;43.236;21.590;2022-11-20T03:12:20;44.17;;;29.67;;
55015;SDS011;40919;43.236;21.590;2022-11-20T03:14:46;49.00;;;35.58;;
55015;SDS011;40919;43.236;21.590;2022-11-20T03:17:12;46.30;;;34.22;;
55015;SDS011;40919;43.236;21.590;2022-11-20T03:19:37;44.67;;;32.63;;
55015;SDS011;40919;43.236;21.590;2022-11-20T03:22:03;44.05;;;31.45;;
55015;SDS011;40919;43.236;21.590;2022-11-20T03:24:29;43.85;;;29.42;;
55015;SDS011;40919;43.236;21.590;2022-11-20T03:26:55;33.08;;;23.77;;
55015;SDS011;40919;43.236;21.590;2022-11-20T03:29:20;34.53;;;24.20;;
55015;SDS011;40919;43.236;21.590;2022-11-20T03:31:46;36.30;;;24.35;;
55015;SDS011;40919;43.236;21.590;2022-11-20T03:34:12;38.60;;;27.38;;
55015;SDS011;40919;43.236;21.590;2022-11-20T03:36:39;40.90;;;28.20;;
55015;SDS011;40919;43.236;21.590;2022-11-20T03:39:06;38.33;;;25.33;;
55015;SDS011;40919;43.236;21.590;2022-11-20T03:41:35;28.30;;;21.98;;
55015;SDS011;40919;43.236;21.590;2022-11-20T03:44:04;31.35;;;23.75;;
55015;SDS011;40919;43.236;21.590;2022-11-20T03:46:31;35.20;;;26.88;;
55015;SDS011;40919;43.236;21.590;2022-11-20T03:48:57;41.50;;;32.05;;
55015;SDS011;40919;43.236;21.590;2022-11-20T03:51:24;40.83;;;29.77;;
55015;SDS011;40919;43.236;21.590;2022-11-20T03:53:52;40.00;;;28.88;;
55015;SDS011;40919;43.236;21.590;2022-11-20T03:56:21;36.38;;;28.55;;
55015;SDS011;40919;43.236;21.590;2022-11-20T03:58:49;41.92;;;32.00;;
55015;SDS011;40919;43.236;21.590;2022-11-20T04:01:19;37.03;;;27.00;;
55015;SDS011;40919;43.236;21.590;2022-11-20T04:03:47;35.67;;;25.83;;
55015;SDS011;40919;43.236;21.590;2022-11-20T04:06:18;41.08;;;30.27;;
55015;SDS011;40919;43.236;21.590;2022-11-20T04:08:50;43.28;;;29.90;;
55015;SDS011;40919;43.236;21.590;2022-11-20T04:11:17;41.08;;;27.05;;
55015;SDS011;40919;43.236;21.590;2022-11-20T04:13:48;35.47;;;26.27;;
55015;SDS011;40919;43.236;21.590;2022-11-20T04:16:18;32.78;;;24.85;;
55015;SDS011;40919;43.236;21.590;2022-11-20T04:18:44;34.58;;;25.25;;
55015;SDS011;40919;43.236;21.590;2022-11-20T04:21:10;39.63;;;28.05;;
55015;SDS011;40919;43.236;21.590;2022-11-20T04:23:36;39.88;;;29.65;;
55015;SDS011;40919;43.236;21.590;2022-11-20T04:26:06;45.22;;;31.20;;
55015;SDS011;40919;43.236;21.590;2022-11-20T04:28:34;41.05;;;28.70;;
55015;SDS011;40919;43.236;21.590;2022-11-20T04:31:05;38.33;;;27.80;;
55015;SDS011;40919;43.236;21.590;2022-11-20T04:33:35;34.28;;;26.10;;
55015;SDS011;40919;43.236;21.590;2022-11-20T04:36:11;43.78;;;30.80;;
55015;SDS011;40919;43.236;21.590;2022-11-20T04:38:41;35.22;;;26.55;;
55015;SDS011;40919;43.236;21.590;2022-11-20T04:41:09;33.35;;;25.02;;
55015;SDS011;40919;43.236;21.590;2022-11-20T04:43:40;35.25;;;26.38;;
55015;SDS011;40919;43.236;21.590;2022-11-20T04:46:06;30.80;;;23.98;;
55015;SDS011;40919;43.236;21.590;2022-11-20T04:48:32;39.63;;;28.95;;
55015;SDS011;40919;43.236;21.590;2022-11-20T04:51:02;45.83;;;32.08;;
55015;SDS011;40919;43.236;21.590;2022-11-20T04:53:28;41.85;;;29.83;;
55015;SDS011;40919;43.236;21.590;2022-11-20T04:55:58;49.85;;;34.75;;
55015;SDS011;40919;43.236;21.590;2022-11-20T04:58:28;42.38;;;32.45;;
55015;SDS011;40919;43.236;21.590;2022-11-20T05:01:00;45.85;;;35.25;;
55015;SDS011;40919;43.236;21.590;2022-11-20T05:05:52;52.97;;;36.75;;
55015;SDS011;40919;43.236;21.590;2022-11-20T05:08:18;53.65;;;38.50;;
55015;SDS011;40919;43.236;21.590;2022-11-20T05:10:44;60.20;;;42.28;;
55015;SDS011;40919;43.236;21.590;2022-11-20T05:13:10;52.63;;;37.50;;
55015;SDS011;40919;43.236;21.590;2022-11-20T05:15:35;44.22;;;33.67;;
55015;SDS011;40919;43.236;21.590;2022-11-20T05:18:01;42.00;;;31.92;;
55015;SDS011;40919;43.236;21.590;2022-11-20T05:20:27;37.85;;;28.33;;
55015;SDS011;40919;43.236;21.590;2022-11-20T05:22:56;37.67;;;26.45;;
55015;SDS011;40919;43.236;21.590;2022-11-20T05:25:22;38.65;;;29.65;;
55015;SDS011;40919;43.236;21.590;2022-11-20T05:27:48;45.83;;;31.15;;
55015;SDS011;40919;43.236;21.590;2022-11-20T05:30:14;36.85;;;26.30;;
55015;SDS011;40919;43.236;21.590;2022-11-20T05:32:39;35.80;;;27.10;;
55015;SDS011;40919;43.236;21.590;2022-11-20T05:35:05;35.47;;;23.52;;
55015;SDS011;40919;43.236;21.590;2022-11-20T05:37:32;42.00;;;28.45;;
55015;SDS011;40919;43.236;21.590;2022-11-20T05:39:57;39.42;;;28.80;;
55015;SDS011;40919;43.236;21.590;2022-11-20T05:42:23;36.60;;;26.60;;
55015;SDS011;40919;43.236;21.590;2022-11-20T05:44:55;33.78;;;24.95;;
55015;SDS011;40919;43.236;21.590;2022-11-20T05:47:21;44.33;;;31.02;;
55015;SDS011;40919;43.236;21.590;2022-11-20T05:49:47;54.35;;;38.92;;
55015;SDS011;40919;43.236;21.590;2022-11-20T05:52:13;52.78;;;37.40;;
55015;SDS011;40919;43.236;21.590;2022-11-20T05:54:39;61.22;;;44.03;;
55015;SDS011;40919;43.236;21.590;2022-11-20T05:57:04;69.35;;;48.83;;
55015;SDS011;40919;43.236;21.590;2022-11-20T05:59:30;69.00;;;45.42;;
55015;SDS011;40919;43.236;21.590;2022-11-20T06:01:56;57.28;;;41.38;;
55015;SDS011;40919;43.236;21.590;2022-11-20T06:04:22;37.00;;;26.67;;
55015;SDS011;40919;43.236;21.590;2022-11-20T06:06:48;37.60;;;26.27;;
55015;SDS011;40919;43.236;21.590;2022-11-20T06:09:13;33.85;;;24.85;;
55015;SDS011;40919;43.236;21.590;2022-11-20T06:11:39;35.60;;;27.65;;
55015;SDS011;40919;43.236;21.590;2022-11-20T06:14:05;33.58;;;24.38;;
55015;SDS011;40919;43.236;21.590;2022-11-20T06:16:31;34.45;;;25.00;;
55015;SDS011;40919;43.236;21.590;2022-11-20T06:18:57;31.25;;;22.77;;
55015;SDS011;40919;43.236;21.590;2022-11-20T06:21:22;33.63;;;23.95;;
55015;SDS011;40919;43.236;21.590;2022-11-20T06:23:49;31.17;;;22.23;;
55015;SDS011;40919;43.236;21.590;2022-11-20T06:26:17;31.13;;;23.15;;
55015;SDS011;40919;43.236;21.590;2022-11-20T06:28:47;49.00;;;32.33;;
55015;SDS011;40919;43.236;21.590;2022-11-20T06:31:14;55.03;;;37.03;;
55015;SDS011;40919;43.236;21.590;2022-11-20T06:33:42;65.95;;;43.08;;
55015;SDS011;40919;43.236;21.590;2022-11-20T06:36:09;53.00;;;36.22;;
55015;SDS011;40919;43.236;21.590;2022-11-20T06:38:37;38.72;;;27.15;;
55015;SDS011;40919;43.236;21.590;2022-11-20T06:41:04;37.22;;;27.17;;
55015;SDS011;40919;43.236;21.590;2022-11-20T06:43:40;38.30;;;28.13;;
55015;SDS011;40919;43.236;21.590;2022-11-20T06:46:08;37.30;;;29.13;;
55015;SDS011;40919;43.236;21.590;2022-11-20T06:48:34;34.20;;;26.77;;
55015;SDS011;40919;43.236;21.590;2022-11-20T06:51:02;36.80;;;28.08;;
55015;SDS011;40919;43.236;21.590;2022-11-20T06:53:29;38.72;;;30.05;;
55015;SDS011;40919;43.236;21.590;2022-11-20T06:55:55;35.28;;;28.92;;
55015;SDS011;40919;43.236;21.590;2022-11-20T06:58:22;41.75;;;29.50;;
55015;SDS011;40919;43.236;21.590;2022-11-20T07:00:51;37.22;;;32.53;;
55015;SDS011;40919;43.236;21.590;2022-11-20T07:03:17;50.00;;;35.95;;
55015;SDS011;40919;43.236;21.590;2022-11-20T07:05:42;51.65;;;36.67;;
55015;SDS011;40919;43.236;21.590;2022-11-20T07:08:11;35.78;;;27.55;;
55015;SDS011;40919;43.236;21.590;2022-11-20T07:10:37;28.25;;;22.42;;
55015;SDS011;40919;43.236;21.590;2022-11-20T07:13:03;37.97;;;27.20;;
55015;SDS011;40919;43.236;21.590;2022-11-20T07:15:29;51.35;;;32.38;;
55015;SDS011;40919;43.236;21.590;2022-11-20T07:17:57;84.32;;;49.03;;
55015;SDS011;40919;43.236;21.590;2022-11-20T07:20:24;91.80;;;58.60;;
55015;SDS011;40919;43.236;21.590;2022-11-20T07:22:53;91.93;;;60.15;;
55015;SDS011;40919;43.236;21.590;2022-11-20T07:25:20;65.70;;;39.80;;
55015;SDS011;40919;43.236;21.590;2022-11-20T07:27:46;53.13;;;36.15;;
55015;SDS011;40919;43.236;21.590;2022-11-20T07:30:12;90.88;;;51.58;;
55015;SDS011;40919;43.236;21.590;2022-11-20T07:32:39;97.35;;;55.13;;
55015;SDS011;40919;43.236;21.590;2022-11-20T07:35:05;108.47;;;63.17;;
55015;SDS011;40919;43.236;21.590;2022-11-20T07:37:33;165.73;;;91.03;;
55015;SDS011;40919;43.236;21.590;2022-11-20T07:39:59;200.20;;;111.45;;
55015;SDS011;40919;43.236;21.590;2022-11-20T07:42:25;198.77;;;117.82;;
55015;SDS011;40919;43.236;21.590;2022-11-20T07:44:51;137.52;;;87.80;;
55015;SDS011;40919;43.236;21.590;2022-11-20T07:47:17;111.28;;;72.53;;
55015;SDS011;40919;43.236;21.590;2022-11-20T07:49:42;112.10;;;76.78;;
55015;SDS011;40919;43.236;21.590;2022-11-20T07:52:08;106.80;;;70.47;;
55015;SDS011;40919;43.236;21.590;2022-11-20T07:54:34;105.75;;;76.88;;
55015;SDS011;40919;43.236;21.590;2022-11-20T07:57:00;102.07;;;76.97;;
55015;SDS011;40919;43.236;21.590;2022-11-20T07:59:25;90.00;;;65.10;;
55015;SDS011;40919;43.236;21.590;2022-11-20T08:01:51;74.88;;;56.75;;
55015;SDS011;40919;43.236;21.590;2022-11-20T08:04:17;60.22;;;47.88;;
55015;SDS011;40919;43.236;21.590;2022-11-20T08:06:43;79.85;;;59.00;;
55015;SDS011;40919;43.236;21.590;2022-11-20T08:09:08;68.93;;;48.33;;
55015;SDS011;40919;43.236;21.590;2022-11-20T08:11:34;66.97;;;51.00;;
55015;SDS011;40919;43.236;21.590;2022-11-20T08:14:18;61.13;;;46.70;;
55015;SDS011;40919;43.236;21.590;2022-11-20T08:16:48;58.97;;;46.28;;
55015;SDS011;40919;43.236;21.590;2022-11-20T08:19:15;61.53;;;51.53;;
55015;SDS011;40919;43.236;21.590;2022-11-20T08:21:42;61.80;;;49.55;;
55015;SDS011;40919;43.236;21.590;2022-11-20T08:24:09;75.75;;;62.92;;
55015;SDS011;40919;43.236;21.590;2022-11-20T08:26:36;60.30;;;48.72;;
55015;SDS011;40919;43.236;21.590;2022-11-20T08:29:03;61.05;;;48.50;;
55015;SDS011;40919;43.236;21.590;2022-11-20T08:31:30;66.07;;;52.85;;
55015;SDS011;40919;43.236;21.590;2022-11-20T08:33:56;62.22;;;49.78;;
55015;SDS011;40919;43.236;21.590;2022-11-20T08:36:23;63.83;;;52.20;;
55015;SDS011;40919;43.236;21.590;2022-11-20T08:38:50;94.03;;;75.95;;
55015;SDS011;40919;43.236;21.590;2022-11-20T08:41:17;162.25;;;136.18;;
55015;SDS011;40919;43.236;21.590;2022-11-20T08:44:09;107.70;;;84.85;;
55015;SDS011;40919;43.236;21.590;2022-11-20T08:46:39;88.85;;;72.25;;
55015;SDS011;40919;43.236;21.590;2022-11-20T08:49:07;101.78;;;84.10;;
55015;SDS011;40919;43.236;21.590;2022-11-20T08:51:34;83.05;;;66.25;;
55015;SDS011;40919;43.236;21.590;2022-11-20T08:54:01;90.80;;;69.18;;
55015;SDS011;40919;43.236;21.590;2022-11-20T08:56:27;83.88;;;64.53;;
55015;SDS011;40919;43.236;21.590;2022-11-20T08:58:53;78.75;;;60.63;;
55015;SDS011;40919;43.236;21.590;2022-11-20T09:01:19;84.82;;;64.15;;
55015;SDS011;40919;43.236;21.590;2022-11-20T09:03:46;79.70;;;64.00;;
55015;SDS011;40919;43.236;21.590;2022-11-20T09:06:12;89.32;;;71.82;;
55015;SDS011;40919;43.236;21.590;2022-11-20T09:08:39;88.22;;;71.82;;
55015;SDS011;40919;43.236;21.590;2022-11-20T09:11:05;112.47;;;94.95;;
55015;SDS011;40919;43.236;21.590;2022-11-20T09:13:31;119.68;;;96.47;;
55015;SDS011;40919;43.236;21.590;2022-11-20T09:16:00;138.85;;;112.68;;
55015;SDS011;40919;43.236;21.590;2022-11-20T09:18:30;164.85;;;137.68;;
55015;SDS011;40919;43.236;21.590;2022-11-20T09:21:00;184.38;;;150.77;;
55015;SDS011;40919;43.236;21.590;2022-11-20T09:23:30;160.63;;;127.95;;
55015;SDS011;40919;43.236;21.590;2022-11-20T09:25:58;170.05;;;133.15;;
55015;SDS011;40919;43.236;21.590;2022-11-20T09:28:27;206.00;;;168.05;;
55015;SDS011;40919;43.236;21.590;2022-11-20T09:30:53;224.43;;;177.88;;
55015;SDS011;40919;43.236;21.590;2022-11-20T09:33:19;236.75;;;191.00;;
55015;SDS011;40919;43.236;21.590;2022-11-20T09:35:44;212.63;;;172.43;;
55015;SDS011;40919;43.236;21.590;2022-11-20T09:38:10;179.07;;;143.13;;
55015;SDS011;40919;43.236;21.590;2022-11-20T09:40:38;227.05;;;181.00;;
55015;SDS011;40919;43.236;21.590;2022-11-20T09:43:13;203.95;;;171.50;;
55015;SDS011;40919;43.236;21.590;2022-11-20T09:45:50;173.30;;;148.82;;
55015;SDS011;40919;43.236;21.590;2022-11-20T09:51:41;116.72;;;96.25;;
55015;SDS011;40919;43.236;21.590;2022-11-20T09:54:34;204.73;;;178.43;;
55015;SDS011;40919;43.236;21.590;2022-11-20T09:57:04;165.27;;;137.38;;
55015;SDS011;40919;43.236;21.590;2022-11-20T09:59:45;89.07;;;75.50;;
55015;SDS011;40919;43.236;21.590;2022-11-20T10:05:08;120.95;;;107.75;;
55015;SDS011;40919;43.236;21.590;2022-11-20T10:07:44;109.82;;;95.40;;
55015;SDS011;40919;43.236;21.590;2022-11-20T10:21:17;149.65;;;127.20;;
55015;SDS011;40919;43.236;21.590;2022-11-20T10:26:40;160.13;;;135.90;;
55015;SDS011;40919;43.236;21.590;2022-11-20T10:29:27;160.93;;;137.23;;
55015;SDS011;40919;43.236;21.590;2022-11-20T10:32:03;151.75;;;126.82;;
55015;SDS011;40919;43.236;21.590;2022-11-20T10:37:10;140.38;;;112.90;;
55015;SDS011;40919;43.236;21.590;2022-11-20T10:39:49;115.13;;;92.25;;
55015;SDS011;40919;43.236;21.590;2022-11-20T10:42:17;116.18;;;96.30;;
55015;SDS011;40919;43.236;21.590;2022-11-20T10:44:52;82.45;;;69.20;;
55015;SDS011;40919;43.236;21.590;2022-11-20T10:47:27;72.57;;;61.10;;
55015;SDS011;40919;43.236;21.590;2022-11-20T10:49:55;65.47;;;53.92;;
55015;SDS011;40919;43.236;21.590;2022-11-20T10:54:59;70.40;;;58.95;;
55015;SDS011;40919;43.236;21.590;2022-11-20T10:57:53;62.20;;;54.38;;
55015;SDS011;40919;43.236;21.590;2022-11-20T11:00:30;53.47;;;43.92;;
55015;SDS011;40919;43.236;21.590;2022-11-20T11:02:57;51.92;;;42.28;;
55015;SDS011;40919;43.236;21.590;2022-11-20T11:05:44;56.38;;;46.15;;
55015;SDS011;40919;43.236;21.590;2022-11-20T11:08:17;60.85;;;50.97;;
55015;SDS011;40919;43.236;21.590;2022-11-20T11:10:55;98.13;;;72.43;;
55015;SDS011;40919;43.236;21.590;2022-11-20T11:13:28;100.47;;;64.97;;
55015;SDS011;40919;43.236;21.590;2022-11-20T11:15:55;106.57;;;66.80;;
55015;SDS011;40919;43.236;21.590;2022-11-20T11:18:25;85.40;;;66.07;;
55015;SDS011;40919;43.236;21.590;2022-11-20T11:20:54;81.32;;;67.60;;
55015;SDS011;40919;43.236;21.590;2022-11-20T11:23:40;71.70;;;55.63;;
55015;SDS011;40919;43.236;21.590;2022-11-20T11:26:19;71.00;;;58.45;;
55015;SDS011;40919;43.236;21.590;2022-11-20T11:29:19;110.63;;;91.88;;
55015;SDS011;40919;43.236;21.590;2022-11-20T11:31:42;94.20;;;76.93;;
55015;SDS011;40919;43.236;21.590;2022-11-20T11:34:11;78.43;;;60.38;;
55015;SDS011;40919;43.236;21.590;2022-11-20T11:36:38;66.68;;;53.17;;
55015;SDS011;40919;43.236;21.590;2022-11-20T11:39:06;65.80;;;53.90;;
55015;SDS011;40919;43.236;21.590;2022-11-20T11:41:52;48.67;;;39.03;;
55015;SDS011;40919;43.236;21.590;2022-11-20T11:44:20;57.83;;;47.63;;
55015;SDS011;40919;43.236;21.590;2022-11-20T11:49:46;73.15;;;58.85;;
55015;SDS011;40919;43.236;21.590;2022-11-20T11:52:17;75.55;;;60.72;;
55015;SDS011;40919;43.236;21.590;2022-11-20T12:00:13;89.38;;;75.95;;
55015;SDS011;40919;43.236;21.590;2022-11-20T12:07:47;93.70;;;75.93;;
55015;SDS011;40919;43.236;21.590;2022-11-20T12:12:48;72.50;;;57.35;;
55015;SDS011;40919;43.236;21.590;2022-11-20T12:15:30;123.45;;;87.05;;
55015;SDS011;40919;43.236;21.590;2022-11-20T12:17:58;113.87;;;78.37;;
55015;SDS011;40919;43.236;21.590;2022-11-20T12:20:27;128.77;;;88.57;;
55015;SDS011;40919;43.236;21.590;2022-11-20T12:23:05;98.93;;;72.30;;
55015;SDS011;40919;43.236;21.590;2022-11-20T12:25:51;93.45;;;74.68;;
55015;SDS011;40919;43.236;21.590;2022-11-20T12:33:52;150.80;;;114.25;;
55015;SDS011;40919;43.236;21.590;2022-11-20T12:39:34;131.57;;;108.30;;
55015;SDS011;40919;43.236;21.590;2022-11-20T12:45:33;146.85;;;120.47;;
55015;SDS011;40919;43.236;21.590;2022-11-20T12:48:04;151.02;;;122.68;;
55015;SDS011;40919;43.236;21.590;2022-11-20T13:07:30;71.05;;;57.70;;
55015;SDS011;40919;43.236;21.590;2022-11-20T13:09:57;73.75;;;54.95;;
55015;SDS011;40919;43.236;21.590;2022-11-20T13:17:45;87.82;;;68.18;;
55015;SDS011;40919;43.236;21.590;2022-11-20T13:20:19;103.20;;;80.53;;
55015;SDS011;40919;43.236;21.590;2022-11-20T13:22:46;64.53;;;53.65;;
55015;SDS011;40919;43.236;21.590;2022-11-20T13:25:27;33.38;;;23.17;;
55015;SDS011;40919;43.236;21.590;2022-11-20T13:27:55;46.53;;;33.25;;
55015;SDS011;40919;43.236;21.590;2022-11-20T13:30:26;59.45;;;43.65;;
55015;SDS011;40919;43.236;21.590;2022-11-20T13:32:53;66.68;;;51.00;;
55015;SDS011;40919;43.236;21.590;2022-11-20T13:35:30;72.75;;;52.38;;
55015;SDS011;40919;43.236;21.590;2022-11-20T13:40:32;101.55;;;84.90;;
55015;SDS011;40919;43.236;21.590;2022-11-20T13:48:23;38.10;;;28.75;;
55015;SDS011;40919;43.236;21.590;2022-11-20T13:51:06;60.05;;;43.92;;
55015;SDS011;40919;43.236;21.590;2022-11-20T13:59:16;74.20;;;55.63;;
55015;SDS011;40919;43.236;21.590;2022-11-20T14:01:53;80.55;;;55.78;;
55015;SDS011;40919;43.236;21.590;2022-11-20T14:04:20;59.72;;;42.15;;
55015;SDS011;40919;43.236;21.590;2022-11-20T14:06:54;50.63;;;35.72;;
55015;SDS011;40919;43.236;21.590;2022-11-20T14:11:53;51.17;;;35.20;;
55015;SDS011;40919;43.236;21.590;2022-11-20T14:14:20;76.35;;;47.25;;
55015;SDS011;40919;43.236;21.590;2022-11-20T14:16:48;74.60;;;50.75;;
55015;SDS011;40919;43.236;21.590;2022-11-20T14:24:48;119.25;;;87.22;;
55015;SDS011;40919;43.236;21.590;2022-11-20T14:27:18;95.95;;;70.70;;
55015;SDS011;40919;43.236;21.590;2022-11-20T14:29:46;96.25;;;66.03;;
55015;SDS011;40919;43.236;21.590;2022-11-20T14:32:15;98.40;;;73.45;;
55015;SDS011;40919;43.236;21.590;2022-11-20T14:34:43;112.93;;;82.85;;
55015;SDS011;40919;43.236;21.590;2022-11-20T14:37:12;148.73;;;117.50;;
55015;SDS011;40919;43.236;21.590;2022-11-20T14:39:48;167.18;;;125.13;;
55015;SDS011;40919;43.236;21.590;2022-11-20T14:42:20;122.18;;;93.35;;
55015;SDS011;40919;43.236;21.590;2022-11-20T14:44:48;106.18;;;85.68;;
55015;SDS011;40919;43.236;21.590;2022-11-20T14:47:17;118.35;;;91.57;;
55015;SDS011;40919;43.236;21.590;2022-11-20T14:49:45;144.25;;;105.80;;
55015;SDS011;40919;43.236;21.590;2022-11-20T14:52:16;59.88;;;44.08;;
55015;SDS011;40919;43.236;21.590;2022-11-20T14:54:44;73.10;;;48.13;;
55015;SDS011;40919;43.236;21.590;2022-11-20T14:57:20;155.82;;;113.78;;
55015;SDS011;40919;43.236;21.590;2022-11-20T15:02:38;142.70;;;105.68;;
55015;SDS011;40919;43.236;21.590;2022-11-20T15:05:09;123.75;;;93.07;;
55015;SDS011;40919;43.236;21.590;2022-11-20T15:07:35;120.28;;;92.45;;
55015;SDS011;40919;43.236;21.590;2022-11-20T15:10:27;128.88;;;99.13;;
55015;SDS011;40919;43.236;21.590;2022-11-20T15:12:54;164.00;;;123.97;;
55015;SDS011;40919;43.236;21.590;2022-11-20T15:15:32;142.23;;;116.40;;
55015;SDS011;40919;43.236;21.590;2022-11-20T15:18:04;95.63;;;69.15;;
55015;SDS011;40919;43.236;21.590;2022-11-20T15:20:33;135.57;;;98.07;;
55015;SDS011;40919;43.236;21.590;2022-11-20T15:23:01;97.30;;;70.38;;
55015;SDS011;40919;43.236;21.590;2022-11-20T15:25:27;63.33;;;42.33;;
55015;SDS011;40919;43.236;21.590;2022-11-20T15:27:54;119.75;;;94.35;;
55015;SDS011;40919;43.236;21.590;2022-11-20T15:30:21;124.00;;;101.78;;
55015;SDS011;40919;43.236;21.590;2022-11-20T15:32:48;94.53;;;71.55;;
55015;SDS011;40919;43.236;21.590;2022-11-20T15:35:14;91.18;;;63.13;;
55015;SDS011;40919;43.236;21.590;2022-11-20T15:37:41;90.53;;;62.80;;
55015;SDS011;40919;43.236;21.590;2022-11-20T15:40:07;90.88;;;64.47;;
55015;SDS011;40919;43.236;21.590;2022-11-20T15:42:34;78.88;;;55.63;;
55015;SDS011;40919;43.236;21.590;2022-11-20T15:45:00;218.40;;;127.38;;
55015;SDS011;40919;43.236;21.590;2022-11-20T15:47:33;207.93;;;134.55;;
55015;SDS011;40919;43.236;21.590;2022-11-20T15:50:00;203.00;;;140.75;;
55015;SDS011;40919;43.236;21.590;2022-11-20T15:52:26;170.43;;;117.22;;
55015;SDS011;40919;43.236;21.590;2022-11-20T15:54:52;161.30;;;117.88;;
55015;SDS011;40919;43.236;21.590;2022-11-20T15:57:18;151.65;;;111.65;;
55015;SDS011;40919;43.236;21.590;2022-11-20T15:59:44;154.55;;;114.13;;